sensor_id;sensor_type;location;lat;lon;timestamp;temperature;humidity
7814;DHT22;3952;48.364;16.022;2024-03-06T00:00:39;6.80;99.90
7814;DHT22;3952;48.364;16.022;2024-03-06T00:03:07;6.70;99.90
7814;DHT22;3952;48.364;16.022;2024-03-06T00:05:34;6.70;99.90
7814;DHT22;3952;48.364;16.022;2024-03-06T00:08:01;6.60;99.90
7814;DHT22;3952;48.364;16.022;2024-03-06T00:10:29;6.60;99.90
7814;DHT22;3952;48.364;16.022;2024-03-06T00:12:57;6.50;99.90
7814;DHT22;3952;48.364;16.022;2024-03-06T00:15:25;7.50;99.90
7814;DHT22;3952;48.364;16.022;2024-03-06T00:17:53;6.50;99.90
7814;DHT22;3952;48.364;16.022;2024-03-06T00:20:20;6.50;99.90
7814;DHT22;3952;48.364;16.022;2024-03-06T00:22:48;6.50;99.90
7814;DHT22;3952;48.364;16.022;2024-03-06T00:25:15;6.50;99.90
7814;DHT22;3952;48.364;16.022;2024-03-06T00:27:42;6.50;99.90
7814;DHT22;3952;48.364;16.022;2024-03-06T00:30:11;6.50;99.90
7814;DHT22;3952;48.364;16.022;2024-03-06T00:32:40;6.50;99.90
7814;DHT22;3952;48.364;16.022;2024-03-06T00:35:08;6.40;99.90
7814;DHT22;3952;48.364;16.022;2024-03-06T00:37:35;6.40;99.90
7814;DHT22;3952;48.364;16.022;2024-03-06T00:40:03;6.40;99.90
7814;DHT22;3952;48.364;16.022;2024-03-06T00:42:32;6.40;99.90
7814;DHT22;3952;48.364;16.022;2024-03-06T00:44:59;6.40;99.90
7814;DHT22;3952;48.364;16.022;2024-03-06T00:47:28;6.30;99.90
7814;DHT22;3952;48.364;16.022;2024-03-06T00:49:56;6.30;99.90
7814;DHT22;3952;48.364;16.022;2024-03-06T00:52:24;6.20;99.90
7814;DHT22;3952;48.364;16.022;2024-03-06T00:54:51;6.20;99.90
7814;DHT22;3952;48.364;16.022;2024-03-06T00:57:18;6.20;99.90
7814;DHT22;3952;48.364;16.022;2024-03-06T00:59:46;6.20;99.90
7814;DHT22;3952;48.364;16.022;2024-03-06T01:02:13;6.20;99.90
7814;DHT22;3952;48.364;16.022;2024-03-06T01:04:40;6.20;99.90
7814;DHT22;3952;48.364;16.022;2024-03-06T01:07:09;6.20;99.90
7814;DHT22;3952;48.364;16.022;2024-03-06T01:09:37;6.20;99.90
7814;DHT22;3952;48.364;16.022;2024-03-06T01:12:04;6.20;99.90
7814;DHT22;3952;48.364;16.022;2024-03-06T01:14:32;6.20;99.90
7814;DHT22;3952;48.364;16.022;2024-03-06T01:16:59;6.20;99.90
7814;DHT22;3952;48.364;16.022;2024-03-06T01:19:27;6.10;99.90
7814;DHT22;3952;48.364;16.022;2024-03-06T01:21:54;6.10;99.90
7814;DHT22;3952;48.364;16.022;2024-03-06T01:24:23;6.10;99.90
7814;DHT22;3952;48.364;16.022;2024-03-06T01:26:50;6.20;99.90
7814;DHT22;3952;48.364;16.022;2024-03-06T01:29:18;6.10;99.90
7814;DHT22;3952;48.364;16.022;2024-03-06T01:31:45;6.10;99.90
7814;DHT22;3952;48.364;16.022;2024-03-06T01:34:12;6.10;99.90
7814;DHT22;3952;48.364;16.022;2024-03-06T01:36:40;6.10;99.90
7814;DHT22;3952;48.364;16.022;2024-03-06T01:39:07;6.00;99.90
7814;DHT22;3952;48.364;16.022;2024-03-06T01:41:44;6.00;99.90
7814;DHT22;3952;48.364;16.022;2024-03-06T01:44:11;6.00;99.90
7814;DHT22;3952;48.364;16.022;2024-03-06T01:46:38;6.00;99.90
7814;DHT22;3952;48.364;16.022;2024-03-06T01:49:06;6.00;99.90
7814;DHT22;3952;48.364;16.022;2024-03-06T01:51:34;6.00;99.90
7814;DHT22;3952;48.364;16.022;2024-03-06T01:54:02;6.00;99.90
7814;DHT22;3952;48.364;16.022;2024-03-06T01:56:32;6.00;99.90
7814;DHT22;3952;48.364;16.022;2024-03-06T01:59:01;6.00;99.90
7814;DHT22;3952;48.364;16.022;2024-03-06T02:01:30;6.00;99.90
7814;DHT22;3952;48.364;16.022;2024-03-06T02:03:58;5.90;99.90
7814;DHT22;3952;48.364;16.022;2024-03-06T02:06:26;5.90;99.90
7814;DHT22;3952;48.364;16.022;2024-03-06T02:08:53;5.90;99.90
7814;DHT22;3952;48.364;16.022;2024-03-06T02:11:21;5.80;99.90
7814;DHT22;3952;48.364;16.022;2024-03-06T02:13:50;5.80;99.90
7814;DHT22;3952;48.364;16.022;2024-03-06T02:16:19;5.70;99.90
7814;DHT22;3952;48.364;16.022;2024-03-06T02:18:52;5.70;99.90
7814;DHT22;3952;48.364;16.022;2024-03-06T02:21:22;5.60;99.90
7814;DHT22;3952;48.364;16.022;2024-03-06T02:23:49;5.60;99.90
7814;DHT22;3952;48.364;16.022;2024-03-06T02:26:18;5.50;99.90
7814;DHT22;3952;48.364;16.022;2024-03-06T02:28:48;5.50;99.90
7814;DHT22;3952;48.364;16.022;2024-03-06T02:31:17;5.50;99.90
7814;DHT22;3952;48.364;16.022;2024-03-06T02:33:46;5.50;99.90
7814;DHT22;3952;48.364;16.022;2024-03-06T02:36:14;5.50;99.90
7814;DHT22;3952;48.364;16.022;2024-03-06T02:38:44;5.60;99.90
7814;DHT22;3952;48.364;16.022;2024-03-06T02:41:12;5.60;99.90
7814;DHT22;3952;48.364;16.022;2024-03-06T02:43:41;5.70;99.90
7814;DHT22;3952;48.364;16.022;2024-03-06T02:46:09;5.70;99.90
7814;DHT22;3952;48.364;16.022;2024-03-06T02:48:36;5.70;99.90
7814;DHT22;3952;48.364;16.022;2024-03-06T02:51:04;5.70;99.90
7814;DHT22;3952;48.364;16.022;2024-03-06T02:53:31;5.70;99.90
7814;DHT22;3952;48.364;16.022;2024-03-06T02:56:00;5.80;99.90
7814;DHT22;3952;48.364;16.022;2024-03-06T02:58:27;5.80;99.90
7814;DHT22;3952;48.364;16.022;2024-03-06T03:00:57;5.80;99.90
7814;DHT22;3952;48.364;16.022;2024-03-06T03:03:24;5.90;99.90
7814;DHT22;3952;48.364;16.022;2024-03-06T03:05:52;5.90;99.90
7814;DHT22;3952;48.364;16.022;2024-03-06T03:08:19;6.00;99.90
7814;DHT22;3952;48.364;16.022;2024-03-06T03:10:46;6.20;99.90
7814;DHT22;3952;48.364;16.022;2024-03-06T03:13:15;6.30;99.90
7814;DHT22;3952;48.364;16.022;2024-03-06T03:15:42;6.40;99.90
7814;DHT22;3952;48.364;16.022;2024-03-06T03:18:10;6.50;99.90
7814;DHT22;3952;48.364;16.022;2024-03-06T03:20:37;6.50;99.90
7814;DHT22;3952;48.364;16.022;2024-03-06T03:23:04;6.50;99.90
7814;DHT22;3952;48.364;16.022;2024-03-06T03:25:37;6.50;99.90
7814;DHT22;3952;48.364;16.022;2024-03-06T03:28:06;6.50;99.90
7814;DHT22;3952;48.364;16.022;2024-03-06T03:30:35;6.60;99.90
7814;DHT22;3952;48.364;16.022;2024-03-06T03:33:02;6.60;99.90
7814;DHT22;3952;48.364;16.022;2024-03-06T03:35:29;6.60;99.90
7814;DHT22;3952;48.364;16.022;2024-03-06T03:37:58;6.50;99.90
7814;DHT22;3952;48.364;16.022;2024-03-06T03:40:25;6.60;99.90
7814;DHT22;3952;48.364;16.022;2024-03-06T03:42:52;6.60;99.90
7814;DHT22;3952;48.364;16.022;2024-03-06T03:45:19;6.60;99.90
7814;DHT22;3952;48.364;16.022;2024-03-06T03:47:48;6.60;99.90
7814;DHT22;3952;48.364;16.022;2024-03-06T03:50:15;6.60;99.90
7814;DHT22;3952;48.364;16.022;2024-03-06T03:52:43;6.60;99.90
7814;DHT22;3952;48.364;16.022;2024-03-06T03:55:10;6.60;99.90
7814;DHT22;3952;48.364;16.022;2024-03-06T03:57:38;6.70;99.90
7814;DHT22;3952;48.364;16.022;2024-03-06T04:00:06;6.70;99.90
7814;DHT22;3952;48.364;16.022;2024-03-06T04:02:36;6.70;99.90
7814;DHT22;3952;48.364;16.022;2024-03-06T04:05:05;6.70;99.90
7814;DHT22;3952;48.364;16.022;2024-03-06T04:07:32;6.70;99.90
7814;DHT22;3952;48.364;16.022;2024-03-06T04:09:59;6.70;99.90
7814;DHT22;3952;48.364;16.022;2024-03-06T04:12:27;6.70;99.90
7814;DHT22;3952;48.364;16.022;2024-03-06T04:14:54;6.70;99.90
7814;DHT22;3952;48.364;16.022;2024-03-06T04:17:21;6.70;99.90
7814;DHT22;3952;48.364;16.022;2024-03-06T04:19:50;6.70;99.90
7814;DHT22;3952;48.364;16.022;2024-03-06T04:22:20;6.70;99.90
7814;DHT22;3952;48.364;16.022;2024-03-06T04:24:48;6.70;99.90
7814;DHT22;3952;48.364;16.022;2024-03-06T04:27:15;6.70;99.90
7814;DHT22;3952;48.364;16.022;2024-03-06T04:29:43;6.70;99.90
7814;DHT22;3952;48.364;16.022;2024-03-06T04:32:10;6.70;99.90
7814;DHT22;3952;48.364;16.022;2024-03-06T04:34:37;6.70;99.90
7814;DHT22;3952;48.364;16.022;2024-03-06T04:37:05;6.70;99.90
7814;DHT22;3952;48.364;16.022;2024-03-06T04:39:34;6.70;99.90
7814;DHT22;3952;48.364;16.022;2024-03-06T04:42:01;6.60;99.90
7814;DHT22;3952;48.364;16.022;2024-03-06T04:44:28;6.70;99.90
7814;DHT22;3952;48.364;16.022;2024-03-06T04:46:56;6.70;99.90
7814;DHT22;3952;48.364;16.022;2024-03-06T04:49:23;6.70;99.90
7814;DHT22;3952;48.364;16.022;2024-03-06T04:51:50;6.60;99.90
7814;DHT22;3952;48.364;16.022;2024-03-06T04:54:18;6.60;99.90
7814;DHT22;3952;48.364;16.022;2024-03-06T04:56:46;6.60;99.90
7814;DHT22;3952;48.364;16.022;2024-03-06T04:59:14;6.60;99.90
7814;DHT22;3952;48.364;16.022;2024-03-06T05:01:41;6.60;99.90
7814;DHT22;3952;48.364;16.022;2024-03-06T05:04:09;6.60;99.90
7814;DHT22;3952;48.364;16.022;2024-03-06T05:06:37;6.50;99.90
7814;DHT22;3952;48.364;16.022;2024-03-06T05:09:05;6.50;99.90
7814;DHT22;3952;48.364;16.022;2024-03-06T05:11:33;6.50;99.90
7814;DHT22;3952;48.364;16.022;2024-03-06T05:14:02;6.40;99.90
7814;DHT22;3952;48.364;16.022;2024-03-06T05:16:29;6.40;99.90
7814;DHT22;3952;48.364;16.022;2024-03-06T05:18:56;6.40;99.90
7814;DHT22;3952;48.364;16.022;2024-03-06T05:21:24;6.30;99.90
7814;DHT22;3952;48.364;16.022;2024-03-06T05:23:51;6.30;99.90
7814;DHT22;3952;48.364;16.022;2024-03-06T05:26:18;6.30;99.90
7814;DHT22;3952;48.364;16.022;2024-03-06T05:28:46;6.20;99.90
7814;DHT22;3952;48.364;16.022;2024-03-06T05:31:18;6.20;99.90
7814;DHT22;3952;48.364;16.022;2024-03-06T05:33:48;6.20;99.90
7814;DHT22;3952;48.364;16.022;2024-03-06T05:36:15;6.10;99.90
7814;DHT22;3952;48.364;16.022;2024-03-06T05:38:44;6.10;99.90
7814;DHT22;3952;48.364;16.022;2024-03-06T05:41:11;6.00;99.90
7814;DHT22;3952;48.364;16.022;2024-03-06T05:43:38;6.00;99.90
7814;DHT22;3952;48.364;16.022;2024-03-06T05:46:06;6.00;99.90
7814;DHT22;3952;48.364;16.022;2024-03-06T05:48:35;5.90;99.90
7814;DHT22;3952;48.364;16.022;2024-03-06T05:51:03;5.90;99.90
7814;DHT22;3952;48.364;16.022;2024-03-06T05:53:30;5.90;99.90
7814;DHT22;3952;48.364;16.022;2024-03-06T05:55:58;6.00;99.90
7814;DHT22;3952;48.364;16.022;2024-03-06T05:58:26;6.00;99.90
7814;DHT22;3952;48.364;16.022;2024-03-06T06:00:53;6.10;99.90
7814;DHT22;3952;48.364;16.022;2024-03-06T06:03:20;6.10;99.90
7814;DHT22;3952;48.364;16.022;2024-03-06T06:05:49;6.10;99.90
7814;DHT22;3952;48.364;16.022;2024-03-06T06:08:16;6.20;99.90
7814;DHT22;3952;48.364;16.022;2024-03-06T06:10:44;6.20;99.90
7814;DHT22;3952;48.364;16.022;2024-03-06T06:13:11;6.30;99.90
7814;DHT22;3952;48.364;16.022;2024-03-06T06:15:38;6.30;99.90
7814;DHT22;3952;48.364;16.022;2024-03-06T06:18:06;6.30;99.90
7814;DHT22;3952;48.364;16.022;2024-03-06T06:20:34;6.40;99.90
7814;DHT22;3952;48.364;16.022;2024-03-06T06:23:03;6.50;99.90
7814;DHT22;3952;48.364;16.022;2024-03-06T06:25:30;6.50;99.90
7814;DHT22;3952;48.364;16.022;2024-03-06T06:27:57;6.50;99.90
7814;DHT22;3952;48.364;16.022;2024-03-06T06:30:25;6.60;99.90
7814;DHT22;3952;48.364;16.022;2024-03-06T06:32:52;6.70;99.90
7814;DHT22;3952;48.364;16.022;2024-03-06T06:35:20;6.80;99.90
7814;DHT22;3952;48.364;16.022;2024-03-06T06:37:48;6.90;99.90
7814;DHT22;3952;48.364;16.022;2024-03-06T06:40:17;7.00;99.90
7814;DHT22;3952;48.364;16.022;2024-03-06T06:42:47;7.10;99.90
7814;DHT22;3952;48.364;16.022;2024-03-06T06:45:15;7.20;99.90
7814;DHT22;3952;48.364;16.022;2024-03-06T06:47:45;7.30;99.90
7814;DHT22;3952;48.364;16.022;2024-03-06T06:50:24;7.40;99.90
7814;DHT22;3952;48.364;16.022;2024-03-06T06:52:53;7.50;99.90
7814;DHT22;3952;48.364;16.022;2024-03-06T06:55:23;7.60;99.90
7814;DHT22;3952;48.364;16.022;2024-03-06T06:58:04;7.70;99.90
7814;DHT22;3952;48.364;16.022;2024-03-06T07:00:32;7.70;99.90
7814;DHT22;3952;48.364;16.022;2024-03-06T07:03:00;7.80;99.90
7814;DHT22;3952;48.364;16.022;2024-03-06T07:05:27;7.90;99.90
7814;DHT22;3952;48.364;16.022;2024-03-06T07:07:54;8.00;99.90
7814;DHT22;3952;48.364;16.022;2024-03-06T07:10:23;8.10;99.90
7814;DHT22;3952;48.364;16.022;2024-03-06T07:12:51;8.20;99.90
7814;DHT22;3952;48.364;16.022;2024-03-06T07:15:18;8.40;99.90
7814;DHT22;3952;48.364;16.022;2024-03-06T07:17:46;8.50;99.90
7814;DHT22;3952;48.364;16.022;2024-03-06T07:20:13;8.60;99.90
7814;DHT22;3952;48.364;16.022;2024-03-06T07:22:40;8.70;99.90
7814;DHT22;3952;48.364;16.022;2024-03-06T07:25:08;8.70;99.90
7814;DHT22;3952;48.364;16.022;2024-03-06T07:27:37;8.80;99.90
7814;DHT22;3952;48.364;16.022;2024-03-06T07:30:06;8.90;99.90
7814;DHT22;3952;48.364;16.022;2024-03-06T07:32:34;9.00;99.90
7814;DHT22;3952;48.364;16.022;2024-03-06T07:35:01;9.10;99.90
7814;DHT22;3952;48.364;16.022;2024-03-06T07:37:29;9.50;99.90
7814;DHT22;3952;48.364;16.022;2024-03-06T07:39:56;11.90;99.90
7814;DHT22;3952;48.364;16.022;2024-03-06T07:42:25;14.60;99.90
7814;DHT22;3952;48.364;16.022;2024-03-06T07:44:53;16.60;99.90
7814;DHT22;3952;48.364;16.022;2024-03-06T07:47:21;17.80;99.90
7814;DHT22;3952;48.364;16.022;2024-03-06T07:49:48;18.90;96.30
7814;DHT22;3952;48.364;16.022;2024-03-06T07:52:16;19.50;95.20
7814;DHT22;3952;48.364;16.022;2024-03-06T07:54:43;20.30;92.20
7814;DHT22;3952;48.364;16.022;2024-03-06T07:57:11;20.90;89.50
7814;DHT22;3952;48.364;16.022;2024-03-06T07:59:38;21.40;84.80
7814;DHT22;3952;48.364;16.022;2024-03-06T08:02:07;20.70;81.40
7814;DHT22;3952;48.364;16.022;2024-03-06T08:04:34;18.70;85.20
7814;DHT22;3952;48.364;16.022;2024-03-06T08:07:02;16.50;91.00
7814;DHT22;3952;48.364;16.022;2024-03-06T08:09:29;15.10;93.90
7814;DHT22;3952;48.364;16.022;2024-03-06T08:11:57;14.00;96.50
7814;DHT22;3952;48.364;16.022;2024-03-06T08:14:24;14.10;97.30
7814;DHT22;3952;48.364;16.022;2024-03-06T08:16:52;15.40;95.60
7814;DHT22;3952;48.364;16.022;2024-03-06T08:19:21;16.60;93.80
7814;DHT22;3952;48.364;16.022;2024-03-06T08:21:50;17.20;92.40
7814;DHT22;3952;48.364;16.022;2024-03-06T08:24:18;17.50;92.40
7814;DHT22;3952;48.364;16.022;2024-03-06T08:26:45;17.40;91.60
7814;DHT22;3952;48.364;16.022;2024-03-06T08:29:14;17.20;90.90
7814;DHT22;3952;48.364;16.022;2024-03-06T08:31:41;16.60;91.80
7814;DHT22;3952;48.364;16.022;2024-03-06T08:34:08;15.90;93.30
7814;DHT22;3952;48.364;16.022;2024-03-06T08:36:37;15.60;93.60
7814;DHT22;3952;48.364;16.022;2024-03-06T08:39:04;15.10;94.80
7814;DHT22;3952;48.364;16.022;2024-03-06T08:41:32;14.50;94.70
7814;DHT22;3952;48.364;16.022;2024-03-06T08:44:00;13.70;96.00
7814;DHT22;3952;48.364;16.022;2024-03-06T08:46:29;13.10;98.00
7814;DHT22;3952;48.364;16.022;2024-03-06T08:48:56;13.50;99.30
7814;DHT22;3952;48.364;16.022;2024-03-06T08:51:23;12.70;99.80
7814;DHT22;3952;48.364;16.022;2024-03-06T08:53:53;12.60;99.90
7814;DHT22;3952;48.364;16.022;2024-03-06T08:56:20;12.60;99.90
7814;DHT22;3952;48.364;16.022;2024-03-06T08:58:47;12.40;99.90
7814;DHT22;3952;48.364;16.022;2024-03-06T09:01:14;12.30;99.90
7814;DHT22;3952;48.364;16.022;2024-03-06T09:03:42;12.20;99.90
7814;DHT22;3952;48.364;16.022;2024-03-06T09:06:09;12.50;99.90
7814;DHT22;3952;48.364;16.022;2024-03-06T09:08:38;12.60;99.90
7814;DHT22;3952;48.364;16.022;2024-03-06T09:11:07;12.80;99.90
7814;DHT22;3952;48.364;16.022;2024-03-06T09:13:34;12.90;99.90
7814;DHT22;3952;48.364;16.022;2024-03-06T09:16:02;13.00;99.90
7814;DHT22;3952;48.364;16.022;2024-03-06T09:18:30;13.10;99.90
7814;DHT22;3952;48.364;16.022;2024-03-06T09:20:57;13.20;99.90
7814;DHT22;3952;48.364;16.022;2024-03-06T09:23:25;13.30;99.90
7814;DHT22;3952;48.364;16.022;2024-03-06T09:25:55;13.30;99.90
7814;DHT22;3952;48.364;16.022;2024-03-06T09:28:24;13.30;99.90
7814;DHT22;3952;48.364;16.022;2024-03-06T09:30:52;13.30;99.90
7814;DHT22;3952;48.364;16.022;2024-03-06T09:33:19;13.40;99.90
7814;DHT22;3952;48.364;16.022;2024-03-06T09:35:47;13.40;99.90
7814;DHT22;3952;48.364;16.022;2024-03-06T09:38:14;13.30;99.90
7814;DHT22;3952;48.364;16.022;2024-03-06T09:40:41;13.20;99.90
7814;DHT22;3952;48.364;16.022;2024-03-06T09:43:09;13.20;99.90
7814;DHT22;3952;48.364;16.022;2024-03-06T09:45:38;13.40;99.90
7814;DHT22;3952;48.364;16.022;2024-03-06T09:48:06;13.50;99.90
7814;DHT22;3952;48.364;16.022;2024-03-06T09:50:36;13.50;99.60
7814;DHT22;3952;48.364;16.022;2024-03-06T09:53:08;13.30;99.20
7814;DHT22;3952;48.364;16.022;2024-03-06T09:55:39;13.00;99.90
7814;DHT22;3952;48.364;16.022;2024-03-06T09:58:09;12.80;99.90
7814;DHT22;3952;48.364;16.022;2024-03-06T10:00:38;12.50;99.90
7814;DHT22;3952;48.364;16.022;2024-03-06T10:03:05;12.40;99.90
7814;DHT22;3952;48.364;16.022;2024-03-06T10:05:34;12.30;99.90
7814;DHT22;3952;48.364;16.022;2024-03-06T10:08:02;12.40;99.90
7814;DHT22;3952;48.364;16.022;2024-03-06T10:10:30;12.40;99.90
7814;DHT22;3952;48.364;16.022;2024-03-06T10:12:58;12.50;99.90
7814;DHT22;3952;48.364;16.022;2024-03-06T10:15:26;12.50;99.90
7814;DHT22;3952;48.364;16.022;2024-03-06T10:18:11;12.40;99.90
7814;DHT22;3952;48.364;16.022;2024-03-06T10:20:40;12.30;99.90
7814;DHT22;3952;48.364;16.022;2024-03-06T10:23:09;12.20;99.90
7814;DHT22;3952;48.364;16.022;2024-03-06T10:25:37;12.10;99.90
7814;DHT22;3952;48.364;16.022;2024-03-06T10:28:06;12.00;99.90
7814;DHT22;3952;48.364;16.022;2024-03-06T10:30:33;11.90;99.90
7814;DHT22;3952;48.364;16.022;2024-03-06T10:33:03;11.90;99.90
7814;DHT22;3952;48.364;16.022;2024-03-06T10:35:33;11.80;99.90
7814;DHT22;3952;48.364;16.022;2024-03-06T10:38:02;11.80;99.90
7814;DHT22;3952;48.364;16.022;2024-03-06T10:40:31;11.70;99.90
7814;DHT22;3952;48.364;16.022;2024-03-06T10:42:59;11.50;99.90
7814;DHT22;3952;48.364;16.022;2024-03-06T10:45:38;11.50;99.90
7814;DHT22;3952;48.364;16.022;2024-03-06T10:48:07;11.40;99.90
7814;DHT22;3952;48.364;16.022;2024-03-06T10:50:39;11.40;99.90
7814;DHT22;3952;48.364;16.022;2024-03-06T10:53:10;11.50;99.90
7814;DHT22;3952;48.364;16.022;2024-03-06T10:55:38;11.50;99.90
7814;DHT22;3952;48.364;16.022;2024-03-06T10:58:07;11.60;99.90
7814;DHT22;3952;48.364;16.022;2024-03-06T11:00:37;11.80;99.90
7814;DHT22;3952;48.364;16.022;2024-03-06T11:03:06;12.00;99.90
7814;DHT22;3952;48.364;16.022;2024-03-06T11:05:35;12.10;99.90
7814;DHT22;3952;48.364;16.022;2024-03-06T11:08:08;12.10;99.90
7814;DHT22;3952;48.364;16.022;2024-03-06T11:10:37;12.00;99.90
7814;DHT22;3952;48.364;16.022;2024-03-06T11:13:20;11.80;99.90
7814;DHT22;3952;48.364;16.022;2024-03-06T11:15:49;11.70;99.90
7814;DHT22;3952;48.364;16.022;2024-03-06T11:18:44;11.70;99.90
7814;DHT22;3952;48.364;16.022;2024-03-06T11:21:33;11.80;99.90
7814;DHT22;3952;48.364;16.022;2024-03-06T11:24:16;11.90;99.90
7814;DHT22;3952;48.364;16.022;2024-03-06T11:26:46;11.90;99.90
7814;DHT22;3952;48.364;16.022;2024-03-06T11:29:16;11.80;99.90
7814;DHT22;3952;48.364;16.022;2024-03-06T11:32:04;11.80;99.90
7814;DHT22;3952;48.364;16.022;2024-03-06T11:34:34;13.10;99.90
7814;DHT22;3952;48.364;16.022;2024-03-06T11:37:04;11.60;99.90
7814;DHT22;3952;48.364;16.022;2024-03-06T11:39:37;11.50;99.90
7814;DHT22;3952;48.364;16.022;2024-03-06T11:42:05;11.50;99.90
7814;DHT22;3952;48.364;16.022;2024-03-06T11:44:35;11.40;99.90
7814;DHT22;3952;48.364;16.022;2024-03-06T11:47:03;11.30;99.90
7814;DHT22;3952;48.364;16.022;2024-03-06T11:49:32;11.30;99.90
7814;DHT22;3952;48.364;16.022;2024-03-06T11:52:02;11.20;99.90
7814;DHT22;3952;48.364;16.022;2024-03-06T11:54:31;11.20;99.90
7814;DHT22;3952;48.364;16.022;2024-03-06T11:57:01;11.10;99.90
7814;DHT22;3952;48.364;16.022;2024-03-06T11:59:30;11.10;99.90
7814;DHT22;3952;48.364;16.022;2024-03-06T12:01:58;11.10;99.90
7814;DHT22;3952;48.364;16.022;2024-03-06T12:04:27;11.00;99.90
7814;DHT22;3952;48.364;16.022;2024-03-06T12:06:57;11.00;99.90
7814;DHT22;3952;48.364;16.022;2024-03-06T12:09:25;11.00;99.90
7814;DHT22;3952;48.364;16.022;2024-03-06T12:11:55;11.00;99.90
7814;DHT22;3952;48.364;16.022;2024-03-06T12:14:24;10.90;99.90
7814;DHT22;3952;48.364;16.022;2024-03-06T12:16:55;10.90;99.90
7814;DHT22;3952;48.364;16.022;2024-03-06T12:19:25;10.90;99.90
7814;DHT22;3952;48.364;16.022;2024-03-06T12:21:53;10.80;99.90
7814;DHT22;3952;48.364;16.022;2024-03-06T12:24:21;10.80;99.90
7814;DHT22;3952;48.364;16.022;2024-03-06T12:26:59;10.90;99.90
7814;DHT22;3952;48.364;16.022;2024-03-06T12:29:28;10.90;99.90
7814;DHT22;3952;48.364;16.022;2024-03-06T12:31:58;10.90;99.90
7814;DHT22;3952;48.364;16.022;2024-03-06T12:34:25;10.90;99.90
7814;DHT22;3952;48.364;16.022;2024-03-06T12:36:52;10.90;99.90
7814;DHT22;3952;48.364;16.022;2024-03-06T12:39:20;10.90;99.90
7814;DHT22;3952;48.364;16.022;2024-03-06T12:41:49;10.90;99.90
7814;DHT22;3952;48.364;16.022;2024-03-06T12:44:16;10.90;99.90
7814;DHT22;3952;48.364;16.022;2024-03-06T12:46:45;10.80;99.90
7814;DHT22;3952;48.364;16.022;2024-03-06T12:49:13;10.90;99.90
7814;DHT22;3952;48.364;16.022;2024-03-06T12:51:40;10.80;99.90
7814;DHT22;3952;48.364;16.022;2024-03-06T12:54:07;10.90;99.90
7814;DHT22;3952;48.364;16.022;2024-03-06T12:56:35;10.90;99.90
7814;DHT22;3952;48.364;16.022;2024-03-06T12:59:03;10.90;99.90
7814;DHT22;3952;48.364;16.022;2024-03-06T13:01:30;10.80;99.90
7814;DHT22;3952;48.364;16.022;2024-03-06T13:03:59;10.80;99.90
7814;DHT22;3952;48.364;16.022;2024-03-06T13:06:27;10.70;99.90
7814;DHT22;3952;48.364;16.022;2024-03-06T13:08:56;10.70;99.90
7814;DHT22;3952;48.364;16.022;2024-03-06T13:11:24;10.70;99.90
7814;DHT22;3952;48.364;16.022;2024-03-06T13:13:52;10.70;99.90
7814;DHT22;3952;48.364;16.022;2024-03-06T13:16:19;10.70;99.90
7814;DHT22;3952;48.364;16.022;2024-03-06T13:18:47;10.70;99.90
7814;DHT22;3952;48.364;16.022;2024-03-06T13:21:17;12.40;99.90
7814;DHT22;3952;48.364;16.022;2024-03-06T13:23:44;10.80;99.90
7814;DHT22;3952;48.364;16.022;2024-03-06T13:26:11;10.80;99.90
7814;DHT22;3952;48.364;16.022;2024-03-06T13:28:39;10.90;99.90
7814;DHT22;3952;48.364;16.022;2024-03-06T13:31:06;10.90;99.90
7814;DHT22;3952;48.364;16.022;2024-03-06T13:33:34;10.80;99.90
7814;DHT22;3952;48.364;16.022;2024-03-06T13:36:01;11.00;99.90
7814;DHT22;3952;48.364;16.022;2024-03-06T13:38:30;11.00;99.90
7814;DHT22;3952;48.364;16.022;2024-03-06T13:40:57;11.00;99.90
7814;DHT22;3952;48.364;16.022;2024-03-06T13:43:28;11.00;99.90
7814;DHT22;3952;48.364;16.022;2024-03-06T13:45:55;11.00;99.90
7814;DHT22;3952;48.364;16.022;2024-03-06T13:48:22;11.00;99.90
7814;DHT22;3952;48.364;16.022;2024-03-06T13:50:50;10.90;99.90
7814;DHT22;3952;48.364;16.022;2024-03-06T13:53:17;11.00;99.90
7814;DHT22;3952;48.364;16.022;2024-03-06T13:55:46;11.00;99.90
7814;DHT22;3952;48.364;16.022;2024-03-06T13:58:14;11.00;99.90
7814;DHT22;3952;48.364;16.022;2024-03-06T14:00:41;11.00;99.90
7814;DHT22;3952;48.364;16.022;2024-03-06T14:03:09;11.00;99.90
7814;DHT22;3952;48.364;16.022;2024-03-06T14:05:39;11.10;99.90
7814;DHT22;3952;48.364;16.022;2024-03-06T14:08:06;11.10;99.90
7814;DHT22;3952;48.364;16.022;2024-03-06T14:10:38;11.10;99.90
7814;DHT22;3952;48.364;16.022;2024-03-06T14:13:07;11.10;99.90
7814;DHT22;3952;48.364;16.022;2024-03-06T14:15:35;11.10;99.90
7814;DHT22;3952;48.364;16.022;2024-03-06T14:18:03;11.10;99.90
7814;DHT22;3952;48.364;16.022;2024-03-06T14:20:32;11.10;99.90
7814;DHT22;3952;48.364;16.022;2024-03-06T14:22:59;11.10;99.90
7814;DHT22;3952;48.364;16.022;2024-03-06T14:25:26;11.10;99.90
7814;DHT22;3952;48.364;16.022;2024-03-06T14:27:55;11.10;99.90
7814;DHT22;3952;48.364;16.022;2024-03-06T14:30:24;11.00;99.90
7814;DHT22;3952;48.364;16.022;2024-03-06T14:32:51;11.00;99.90
7814;DHT22;3952;48.364;16.022;2024-03-06T14:35:19;11.00;99.90
7814;DHT22;3952;48.364;16.022;2024-03-06T14:37:46;11.00;99.90
7814;DHT22;3952;48.364;16.022;2024-03-06T14:40:15;11.00;99.90
7814;DHT22;3952;48.364;16.022;2024-03-06T14:42:42;11.00;99.90
7814;DHT22;3952;48.364;16.022;2024-03-06T14:45:10;11.00;99.90
7814;DHT22;3952;48.364;16.022;2024-03-06T14:47:38;10.70;99.90
7814;DHT22;3952;48.364;16.022;2024-03-06T14:50:07;11.00;99.90
7814;DHT22;3952;48.364;16.022;2024-03-06T14:52:34;10.90;99.90
7814;DHT22;3952;48.364;16.022;2024-03-06T14:55:01;10.90;99.90
7814;DHT22;3952;48.364;16.022;2024-03-06T14:57:30;10.90;99.90
7814;DHT22;3952;48.364;16.022;2024-03-06T14:59:57;10.90;99.90
7814;DHT22;3952;48.364;16.022;2024-03-06T15:02:24;10.90;99.90
7814;DHT22;3952;48.364;16.022;2024-03-06T15:04:55;10.90;99.90
7814;DHT22;3952;48.364;16.022;2024-03-06T15:07:27;10.90;99.90
7814;DHT22;3952;48.364;16.022;2024-03-06T15:09:54;10.90;99.90
7814;DHT22;3952;48.364;16.022;2024-03-06T15:12:23;10.90;99.90
7814;DHT22;3952;48.364;16.022;2024-03-06T15:14:50;10.80;99.90
7814;DHT22;3952;48.364;16.022;2024-03-06T15:17:20;10.80;99.90
7814;DHT22;3952;48.364;16.022;2024-03-06T15:19:47;10.80;99.90
7814;DHT22;3952;48.364;16.022;2024-03-06T15:22:17;10.80;99.90
7814;DHT22;3952;48.364;16.022;2024-03-06T15:24:44;11.00;99.90
7814;DHT22;3952;48.364;16.022;2024-03-06T15:27:12;10.70;99.90
7814;DHT22;3952;48.364;16.022;2024-03-06T15:29:41;10.70;99.90
7814;DHT22;3952;48.364;16.022;2024-03-06T15:32:09;10.60;99.90
7814;DHT22;3952;48.364;16.022;2024-03-06T15:34:37;10.60;99.90
7814;DHT22;3952;48.364;16.022;2024-03-06T15:37:05;10.60;99.90
7814;DHT22;3952;48.364;16.022;2024-03-06T15:39:34;10.60;99.90
7814;DHT22;3952;48.364;16.022;2024-03-06T15:42:02;10.60;99.90
7814;DHT22;3952;48.364;16.022;2024-03-06T15:44:29;10.50;99.90
7814;DHT22;3952;48.364;16.022;2024-03-06T15:46:57;10.50;99.90
7814;DHT22;3952;48.364;16.022;2024-03-06T15:49:24;10.40;99.90
7814;DHT22;3952;48.364;16.022;2024-03-06T15:51:52;10.40;99.90
7814;DHT22;3952;48.364;16.022;2024-03-06T15:54:21;10.40;99.90
7814;DHT22;3952;48.364;16.022;2024-03-06T15:56:50;10.30;99.90
7814;DHT22;3952;48.364;16.022;2024-03-06T15:59:18;10.30;99.90